Time;durP1;ratioP1;P1;durP2;ratioP2;P2;SDS_P1;SDS_P2;PMS_P1;PMS_P2;Temp;Humidity;BMP_temperature;BMP_pressure;BME280_temperature;BME280_humidity;BME280_pressure;Samples;Min_cycle;Max_cycle;Signal;HPM_P1;HPM_P2
2021/04/10 00:01:48;;;;;;;5.13;3.35;;;5.80;98.90;;;;;;5059239;28;20498;-74
2021/04/10 00:04:14;;;;;;;5.82;3.20;;;5.80;98.70;;;;;;5058378;28;20128;-74
2021/04/10 00:06:41;;;;;;;5.43;3.53;;;5.80;98.40;;;;;;5057954;28;20527;-74
2021/04/10 00:09:08;;;;;;;6.78;3.22;;;5.80;99.00;;;;;;5061655;28;20025;-74
2021/04/10 00:11:35;;;;;;;3.67;3.05;;;5.80;98.40;;;;;;5061780;28;20029;-74
2021/04/10 00:14:04;;;;;;;6.25;3.33;;;5.80;98.10;;;;;;5061194;28;20029;-74
2021/04/10 00:16:30;;;;;;;6.35;3.30;;;5.80;98.60;;;;;;5058026;28;20025;-74
2021/04/10 00:18:56;;;;;;;11.27;4.20;;;5.90;98.20;;;;;;5065231;28;20035;-74
2021/04/10 00:21:21;;;;;;;7.38;3.75;;;5.90;98.40;;;;;;5062193;28;20036;-74
2021/04/10 00:23:47;;;;;;;6.00;3.45;;;5.90;99.30;;;;;;5063780;28;20109;-74
2021/04/10 00:26:14;;;;;;;5.60;3.00;;;5.90;99.90;;;;;;5064096;28;20101;-74
2021/04/10 00:28:40;;;;;;;5.45;3.35;;;5.90;99.90;;;;;;5060684;28;20086;-74
2021/04/10 00:31:06;;;;;;;7.53;3.10;;;5.90;99.90;;;;;;5063044;28;20567;-74
2021/04/10 00:33:40;;;;;;;5.95;2.83;;;5.90;99.90;;;;;;5066733;28;20025;-74
2021/04/10 00:36:07;;;;;;;6.03;3.28;;;5.80;99.90;;;;;;5062845;28;20075;-74
2021/04/10 00:38:34;;;;;;;3.60;2.22;;;5.80;99.90;;;;;;5065333;28;20533;-74
2021/04/10 00:41:00;;;;;;;4.85;2.40;;;5.70;99.90;;;;;;5063752;28;20151;-74
2021/04/10 00:43:27;;;;;;;3.83;2.40;;;5.70;99.90;;;;;;5061483;28;20491;-74
2021/04/10 00:45:53;;;;;;;4.75;2.50;;;5.80;99.90;;;;;;5057736;28;20021;-74
2021/04/10 00:48:19;;;;;;;6.80;2.83;;;5.80;99.90;;;;;;5055323;28;20523;-74
2021/04/10 00:50:47;;;;;;;4.35;2.78;;;5.80;99.90;;;;;;5059588;28;20025;-74
2021/04/10 00:53:16;;;;;;;4.18;2.75;;;5.80;99.90;;;;;;5060290;28;20503;-74
2021/04/10 00:55:44;;;;;;;6.15;2.78;;;5.90;99.90;;;;;;5093643;28;20113;-74
2021/04/10 00:58:11;;;;;;;6.50;2.72;;;5.90;99.90;;;;;;5059736;28;20039;-74
2021/04/10 01:00:38;;;;;;;5.00;3.17;;;5.80;99.90;;;;;;5060714;28;20036;-74
2021/04/10 01:03:04;;;;;;;7.18;3.00;;;5.80;99.90;;;;;;5060451;28;20488;-74
2021/04/10 01:05:30;;;;;;;5.85;3.08;;;5.80;99.90;;;;;;5062822;28;20102;-74
2021/04/10 01:07:55;;;;;;;4.68;2.50;;;5.80;99.90;;;;;;5061682;28;20075;-74
2021/04/10 01:10:22;;;;;;;5.72;2.55;;;5.90;99.90;;;;;;5059471;28;20036;-73
2021/04/10 01:13:10;;;;;;;4.10;2.47;;;5.90;99.90;;;;;;5059268;28;20029;-74
2021/04/10 01:15:54;;;;;;;5.45;2.90;;;5.90;99.90;;;;;;5078028;28;20029;-74
2021/04/10 01:18:33;;;;;;;5.07;3.03;;;5.80;99.90;;;;;;5056188;28;20029;-73
2021/04/10 01:21:16;;;;;;;3.95;2.65;;;5.70;99.90;;;;;;5062023;28;20047;-74
2021/04/10 01:24:04;;;;;;;4.78;2.78;;;5.60;99.90;;;;;;5043054;28;20031;-74
2021/04/10 01:27:08;;;;;;;2.72;2.40;;;5.50;99.90;;;;;;5098649;28;20067;-74
2021/04/10 01:29:40;;;;;;;4.15;2.30;;;5.40;99.90;;;;;;5055525;28;20498;-74
2021/04/10 01:32:07;;;;;;;5.72;2.65;;;5.30;99.90;;;;;;5056134;28;20498;-74
2021/04/10 01:34:40;;;;;;;4.35;2.22;;;5.20;99.90;;;;;;5054677;28;20032;-74
2021/04/10 01:37:12;;;;;;;4.75;2.67;;;5.10;99.90;;;;;;5058710;28;20020;-74
2021/04/10 01:39:40;;;;;;;4.15;2.45;;;5.10;99.90;;;;;;5062841;28;20394;-74
2021/04/10 01:42:09;;;;;;;3.75;2.53;;;5.10;99.90;;;;;;5066991;28;20036;-74
2021/04/10 01:44:38;;;;;;;5.90;2.88;;;5.20;99.90;;;;;;5061096;28;20029;-74
2021/04/10 01:47:05;;;;;;;4.30;2.40;;;5.20;99.90;;;;;;5054489;28;20041;-74
2021/04/10 01:49:32;;;;;;;4.97;2.92;;;5.20;99.90;;;;;;5062620;28;20025;-74
2021/04/10 01:52:02;;;;;;;4.85;2.80;;;5.10;99.90;;;;;;5062972;28;20102;-74
2021/04/10 01:54:29;;;;;;;5.22;2.92;;;5.10;99.90;;;;;;5059178;28;20419;-74
2021/04/10 01:56:56;;;;;;;4.57;2.78;;;5.10;99.90;;;;;;5059510;28;20029;-74
2021/04/10 01:59:26;;;;;;;4.32;2.55;;;5.10;99.90;;;;;;5056291;28;20029;-74
2021/04/10 02:01:55;;;;;;;5.00;2.72;;;5.20;99.90;;;;;;5058098;28;20029;-74
2021/04/10 02:04:34;;;;;;;5.53;3.13;;;5.30;99.90;;;;;;5055429;28;20067;-74
2021/04/10 02:07:02;;;;;;;6.88;3.38;;;5.40;99.90;;;;;;5053964;28;20043;-74
2021/04/10 02:09:32;;;;;;;7.18;2.90;;;5.40;99.90;;;;;;5054542;28;20032;-74
2021/04/10 02:12:08;;;;;;;4.32;2.50;;;5.50;99.90;;;;;;5056071;28;20558;-74
2021/04/10 02:14:42;;;;;;;5.75;2.53;;;5.50;99.90;;;;;;5055851;28;20021;-74
2021/04/10 02:17:09;;;;;;;4.10;2.80;;;5.40;99.90;;;;;;5063706;28;20037;-73
2021/04/10 02:19:46;;;;;;;4.15;2.70;;;5.40;99.90;;;;;;5056057;28;20483;-74
2021/04/10 02:22:14;;;;;;;4.70;2.45;;;5.30;99.90;;;;;;5059438;28;20040;-74
2021/04/10 02:24:41;;;;;;;4.72;2.75;;;5.20;99.90;;;;;;5059071;28;20398;-74
2021/04/10 02:27:10;;;;;;;7.30;3.15;;;5.30;99.90;;;;;;5059223;28;20495;-74
2021/04/10 02:29:45;;;;;;;;;;;5.30;99.90;;;;;;5058445;28;20108;-74
2021/04/10 02:32:13;;;;;;;;;;;5.40;99.90;;;;;;5051030;28;20004;-74
2021/04/10 02:34:57;;;;;;;4.35;2.70;;;5.30;99.90;;;;;;5058542;28;19912;-74
2021/04/10 02:37:26;;;;;;;3.30;2.40;;;5.30;99.90;;;;;;5059720;28;20045;-74
2021/04/10 02:39:52;;;;;;;5.40;2.97;;;5.30;99.90;;;;;;5056627;28;20029;-74
2021/04/10 02:42:20;;;;;;;5.53;3.38;;;5.40;99.90;;;;;;5057646;28;20035;-74
2021/04/10 02:44:50;;;;;;;6.72;2.80;;;5.50;99.90;;;;;;5054957;28;20029;-74
2021/04/10 02:47:23;;;;;;;4.55;3.13;;;5.50;99.90;;;;;;5053503;28;20124;-74
2021/04/10 02:49:53;;;;;;;4.38;2.50;;;5.50;99.90;;;;;;5059369;28;20036;-74
2021/04/10 02:52:32;;;;;;;8.13;2.92;;;5.50;99.90;;;;;;5056711;28;20073;-74
2021/04/10 02:55:01;;;;;;;9.63;3.22;;;5.40;99.90;;;;;;5055373;28;20024;-74
2021/04/10 02:57:28;;;;;;;7.70;3.25;;;5.50;99.90;;;;;;5060045;28;20046;-74
2021/04/10 02:59:57;;;;;;;4.88;3.10;;;5.40;99.90;;;;;;5060976;28;20523;-74
2021/04/10 03:02:24;;;;;;;4.80;2.90;;;5.40;99.90;;;;;;5054312;28;20056;-74
2021/04/10 03:04:53;;;;;;;5.60;2.67;;;5.50;99.90;;;;;;5046440;28;20389;-74
2021/04/10 03:07:23;;;;;;;3.97;2.97;;;5.50;99.90;;;;;;5038530;28;20057;-73
2021/04/10 03:09:49;;;;;;;4.10;2.75;;;5.50;99.90;;;;;;5056335;28;20051;-74
2021/04/10 03:12:20;;;;;;;3.88;2.75;;;5.30;99.90;;;;;;5056568;28;20036;-74
2021/04/10 03:14:47;;;;;;;4.30;2.55;;;5.30;99.90;;;;;;5051126;28;20391;-74
2021/04/10 03:17:19;;;;;;;5.78;3.45;;;5.30;99.90;;;;;;5056628;28;20033;-74
2021/04/10 03:19:46;;;;;;;6.30;2.75;;;5.30;99.90;;;;;;5057845;28;20029;-74
2021/04/10 03:22:15;;;;;;;4.75;2.75;;;5.40;99.90;;;;;;5025146;28;20120;-74
2021/04/10 03:24:41;;;;;;;3.78;2.95;;;5.50;99.90;;;;;;5043895;28;20035;-73
2021/04/10 03:27:07;;;;;;;7.68;3.38;;;5.50;99.90;;;;;;5064649;28;20051;-73
2021/04/10 03:29:35;;;;;;;7.45;2.47;;;5.40;99.90;;;;;;5059891;28;20187;-74
2021/04/10 03:32:06;;;;;;;4.57;2.97;;;5.40;99.90;;;;;;5057490;28;20373;-73
2021/04/10 03:34:34;;;;;;;5.30;2.88;;;5.40;99.90;;;;;;5058655;28;20025;-74
2021/04/10 03:37:03;;;;;;;4.50;2.83;;;5.50;99.90;;;;;;5039606;28;20750;-74
2021/04/10 03:39:30;;;;;;;5.32;3.00;;;5.50;99.90;;;;;;5054343;28;20105;-74
2021/04/10 03:42:01;;;;;;;5.05;2.83;;;5.40;99.90;;;;;;5056744;28;20025;-74
2021/04/10 03:44:28;;;;;;;7.60;2.42;;;5.40;99.90;;;;;;5060227;28;20036;-74
2021/04/10 03:46:54;;;;;;;3.25;2.63;;;5.50;99.90;;;;;;5054410;28;20036;-74
2021/04/10 03:49:20;;;;;;;4.68;2.80;;;5.60;99.90;;;;;;5053139;28;20074;-74
2021/04/10 03:51:46;;;;;;;4.03;2.80;;;5.60;99.90;;;;;;5060327;28;20021;-74
2021/04/10 03:54:12;;;;;;;5.85;2.92;;;5.50;99.90;;;;;;5058607;28;20116;-74
2021/04/10 03:56:41;;;;;;;5.75;2.83;;;5.40;99.90;;;;;;5057163;28;20021;-74
2021/04/10 03:59:15;;;;;;;3.15;1.90;;;5.30;99.90;;;;;;5060426;28;20036;-74
2021/04/10 04:01:50;;;;;;;6.07;2.93;;;5.30;99.90;;;;;;5059044;28;20029;-74
2021/04/10 04:04:16;;;;;;;8.15;2.80;;;5.30;99.90;;;;;;5060503;28;20842;-74
2021/04/10 04:06:41;;;;;;;6.32;2.83;;;5.30;99.90;;;;;;5054308;28;20116;-75
2021/04/10 04:09:07;;;;;;;5.60;2.60;;;5.40;99.90;;;;;;5054466;28;20396;-74
2021/04/10 04:11:33;;;;;;;8.07;2.70;;;5.30;99.90;;;;;;5059999;28;20506;-74
2021/04/10 04:13:58;;;;;;;6.03;3.15;;;5.40;99.90;;;;;;5059246;28;20029;-75
2021/04/10 04:16:24;;;;;;;7.30;3.03;;;5.40;99.90;;;;;;5058537;28;20058;-75
2021/04/10 04:18:49;;;;;;;5.70;2.83;;;5.30;99.90;;;;;;5059467;28;20507;-74
2021/04/10 04:21:15;;;;;;;3.53;2.63;;;5.30;99.90;;;;;;5056460;28;20044;-75
2021/04/10 04:23:41;;;;;;;6.40;3.10;;;5.40;99.90;;;;;;5054957;28;20033;-75
2021/04/10 04:26:07;;;;;;;4.50;3.10;;;5.30;99.90;;;;;;5060590;28;20488;-74
2021/04/10 04:28:32;;;;;;;3.55;2.63;;;5.30;99.90;;;;;;5060506;28;20479;-75
2021/04/10 04:30:58;;;;;;;3.92;2.95;;;5.40;99.90;;;;;;5059675;28;20040;-75
2021/04/10 04:33:24;;;;;;;6.38;3.00;;;5.40;99.90;;;;;;5055902;28;20037;-75
2021/04/10 04:35:50;;;;;;;3.65;2.92;;;5.30;99.90;;;;;;5061189;28;20143;-75
2021/04/10 04:38:16;;;;;;;7.57;2.60;;;5.30;99.90;;;;;;5058066;28;20039;-75
2021/04/10 04:40:41;;;;;;;3.45;2.35;;;5.20;99.90;;;;;;5040621;28;20039;-75
2021/04/10 04:43:07;;;;;;;4.65;2.40;;;5.20;99.90;;;;;;5060243;28;20044;-75
2021/04/10 04:45:33;;;;;;;3.53;1.95;;;5.30;99.90;;;;;;5060682;28;20021;-75
2021/04/10 04:47:58;;;;;;;3.40;2.28;;;5.30;99.90;;;;;;5060665;28;20033;-75
2021/04/10 04:50:24;;;;;;;2.92;2.50;;;5.30;99.90;;;;;;5054447;28;20029;-75
2021/04/10 04:52:50;;;;;;;4.10;2.50;;;5.30;99.90;;;;;;5062955;28;20108;-75
2021/04/10 04:55:15;;;;;;;3.55;1.90;;;5.40;99.90;;;;;;5066606;28;20032;-75
2021/04/10 04:57:41;;;;;;;4.50;2.40;;;5.40;99.90;;;;;;5064002;28;20029;-75
2021/04/10 05:00:07;;;;;;;7.95;2.58;;;5.30;99.90;;;;;;5064532;28;20052;-76
2021/04/10 05:02:33;;;;;;;4.88;2.63;;;5.40;99.90;;;;;;5061125;28;20037;-75
2021/04/10 05:04:59;;;;;;;4.47;2.50;;;5.40;99.90;;;;;;5063346;28;20093;-75
2021/04/10 05:07:25;;;;;;;4.22;2.47;;;5.40;99.90;;;;;;5062956;28;20510;-76
2021/04/10 05:09:50;;;;;;;3.22;2.70;;;5.50;99.90;;;;;;5060715;28;20040;-75
2021/04/10 05:12:16;;;;;;;4.72;2.88;;;5.50;99.90;;;;;;5092382;28;20036;-75
2021/04/10 05:14:42;;;;;;;3.17;2.28;;;5.50;99.90;;;;;;5062840;28;20053;-75
2021/04/10 05:17:07;;;;;;;4.82;2.50;;;5.50;99.90;;;;;;5062410;28;20033;-75
2021/04/10 05:19:34;;;;;;;3.38;2.08;;;5.60;99.90;;;;;;5061748;28;20753;-76
2021/04/10 05:21:59;;;;;;;3.10;2.38;;;5.50;99.90;;;;;;5060429;28;20043;-75
2021/04/10 05:24:25;;;;;;;4.03;2.33;;;5.60;99.90;;;;;;5061439;28;20025;-75
2021/04/10 05:26:51;;;;;;;9.23;2.80;;;5.70;99.90;;;;;;5063682;28;20032;-75
2021/04/10 05:29:16;;;;;;;9.13;4.80;;;5.70;99.90;;;;;;5063951;28;20029;-75
2021/04/10 05:31:42;;;;;;;8.25;5.75;;;5.80;99.90;;;;;;5058912;28;20025;-75
2021/04/10 05:34:07;;;;;;;9.18;5.25;;;5.80;99.90;;;;;;5066192;28;20033;-75
2021/04/10 05:36:33;;;;;;;10.10;5.38;;;5.90;99.90;;;;;;5044089;28;20025;-75
2021/04/10 05:38:59;;;;;;;11.52;8.88;;;5.90;99.90;;;;;;5046337;28;20506;-75
2021/04/10 05:41:24;;;;;;;12.88;7.63;;;5.90;99.90;;;;;;5063183;28;20036;-75
2021/04/10 05:43:50;;;;;;;7.95;6.00;;;5.70;99.90;;;;;;5062611;28;20033;-75
2021/04/10 05:46:16;;;;;;;7.75;5.22;;;5.70;99.90;;;;;;5043102;28;20036;-75
2021/04/10 05:48:42;;;;;;;8.00;4.72;;;5.70;99.90;;;;;;5057496;28;20025;-75
2021/04/10 05:51:07;;;;;;;7.43;4.20;;;5.70;99.90;;;;;;5055145;28;20044;-75
2021/04/10 05:53:33;;;;;;;7.90;4.40;;;5.70;99.90;;;;;;5057672;28;20037;-76
2021/04/10 05:55:59;;;;;;;8.65;5.22;;;5.70;99.90;;;;;;5060301;28;20079;-75
2021/04/10 05:58:25;;;;;;;9.85;6.65;;;5.80;99.90;;;;;;5041993;28;20025;-75
2021/04/10 06:00:50;;;;;;;9.00;5.65;;;5.90;99.90;;;;;;5056110;28;20041;-75
2021/04/10 06:03:16;;;;;;;8.10;4.63;;;5.90;99.90;;;;;;5095456;28;20140;-75
2021/04/10 06:05:46;;;;;;;7.85;4.50;;;6.00;99.90;;;;;;5058836;28;20029;-75
2021/04/10 06:08:12;;;;;;;6.97;4.63;;;6.10;99.90;;;;;;5055012;28;20094;-75
2021/04/10 06:10:38;;;;;;;7.00;4.75;;;6.10;99.90;;;;;;5059164;28;20032;-75
2021/04/10 06:13:04;;;;;;;5.82;4.07;;;6.10;99.90;;;;;;5060123;28;20035;-75
2021/04/10 06:15:30;;;;;;;7.45;4.22;;;6.10;99.90;;;;;;5060488;28;20029;-75
2021/04/10 06:17:55;;;;;;;5.07;3.85;;;6.10;99.90;;;;;;5042642;28;20028;-75
2021/04/10 06:20:21;;;;;;;5.85;4.15;;;6.00;99.90;;;;;;5059648;28;20032;-75
2021/04/10 06:22:47;;;;;;;6.47;4.35;;;6.10;99.90;;;;;;5063202;28;20029;-75
2021/04/10 06:25:13;;;;;;;9.43;5.80;;;6.20;99.90;;;;;;5061883;28;20381;-76
2021/04/10 06:27:39;;;;;;;7.60;4.85;;;6.20;99.90;;;;;;5059421;28;20035;-76
2021/04/10 06:30:06;;;;;;;8.90;5.30;;;6.20;99.90;;;;;;5054603;28;20045;-76
2021/04/10 06:32:32;;;;;;;12.70;4.50;;;6.30;99.90;;;;;;5054020;28;20024;-75
2021/04/10 06:34:58;;;;;;;9.90;5.78;;;6.30;99.90;;;;;;5092936;28;20025;-76
2021/04/10 06:37:24;;;;;;;15.32;7.25;;;6.40;99.90;;;;;;5060069;28;20487;-76
2021/04/10 06:39:49;;;;;;;8.23;6.03;;;6.50;99.90;;;;;;5059195;28;20107;-76
2021/04/10 06:42:15;;;;;;;9.10;5.70;;;6.60;99.90;;;;;;5055910;28;20040;-76
2021/04/10 06:44:41;;;;;;;15.10;8.88;;;6.50;99.90;;;;;;5059672;28;20033;-76
2021/04/10 06:47:08;;;;;;;12.88;7.60;;;6.50;99.90;;;;;;5058035;28;20395;-76
2021/04/10 06:49:34;;;;;;;6.93;4.50;;;6.50;99.90;;;;;;5062429;28;20046;-76
2021/04/10 06:52:00;;;;;;;8.00;5.18;;;6.50;99.90;;;;;;5062536;28;20021;-76
2021/04/10 06:54:34;;;;;;;8.05;4.80;;;6.60;99.90;;;;;;5053615;28;20040;-76
2021/04/10 06:57:10;;;;;;;8.15;4.88;;;6.60;99.90;;;;;;5058432;28;20024;-76
2021/04/10 06:59:48;;;;;;;11.10;6.13;;;6.70;99.90;;;;;;5057812;28;20029;-76
2021/04/10 07:02:15;;;;;;;8.13;4.80;;;6.70;99.90;;;;;;5056281;28;20031;-76
2021/04/10 07:04:41;;;;;;;9.90;5.93;;;6.70;99.90;;;;;;5054236;28;20047;-76
2021/04/10 07:07:08;;;;;;;11.23;5.53;;;6.70;99.90;;;;;;5053497;28;20533;-76
2021/04/10 07:09:35;;;;;;;8.88;5.20;;;6.60;99.90;;;;;;5057640;28;20448;-76
2021/04/10 07:12:03;;;;;;;13.02;7.57;;;6.70;99.90;;;;;;5040532;28;20036;-76
2021/04/10 07:14:29;;;;;;;21.38;12.40;;;6.70;99.90;;;;;;5060839;28;20035;-75
2021/04/10 07:16:57;;;;;;;9.07;6.53;;;6.70;99.90;;;;;;5059440;28;20414;-76
2021/04/10 07:19:25;;;;;;;11.13;6.32;;;6.70;99.90;;;;;;5056952;28;20021;-76
2021/04/10 07:22:09;;;;;;;16.58;10.27;;;6.60;99.90;;;;;;5056269;28;20434;-75
2021/04/10 07:24:36;;;;;;;11.13;6.97;;;6.60;99.90;;;;;;5052402;28;20033;-76
2021/04/10 07:27:03;;;;;;;13.23;6.30;;;6.60;99.90;;;;;;5057689;28;20041;-76
2021/04/10 07:29:35;;;;;;;8.25;5.88;;;6.60;99.90;;;;;;5055495;28;20032;-75
2021/04/10 07:32:34;;;;;;;9.93;5.75;;;6.70;99.90;;;;;;5090505;28;20063;-75
2021/04/10 07:35:11;;;;;;;12.27;6.50;;;6.70;99.90;;;;;;5054065;28;20136;-75
2021/04/10 07:37:46;;;;;;;8.35;5.40;;;6.80;99.90;;;;;;5056398;28;20031;-75
2021/04/10 07:40:19;;;;;;;9.32;5.68;;;6.80;99.90;;;;;;5059096;28;20033;-75
2021/04/10 07:42:46;;;;;;;10.27;5.68;;;6.80;99.90;;;;;;5053261;28;20028;-75
2021/04/10 07:45:22;;;;;;;16.13;9.30;;;6.80;99.90;;;;;;5061152;28;20075;-75
2021/04/10 07:47:48;;;;;;;12.25;7.95;;;6.90;99.90;;;;;;5059795;28;20506;-75
2021/04/10 07:50:26;;;;;;;10.68;6.32;;;6.90;99.90;;;;;;5040233;28;20108;-75
2021/04/10 07:52:52;;;;;;;11.43;8.43;;;6.90;99.90;;;;;;5054888;28;20025;-75
2021/04/10 07:55:39;;;;;;;10.95;7.00;;;7.00;99.90;;;;;;5058992;28;20017;-75
2021/04/10 07:58:25;;;;;;;10.02;6.25;;;7.00;99.90;;;;;;5060655;28;20106;-75
2021/04/10 08:00:51;;;;;;;;;;;7.10;99.90;;;;;;5052389;28;20051;-75
2021/04/10 08:03:32;;;;;;;10.55;8.02;;;7.10;99.90;;;;;;5052843;28;19968;-73
2021/04/10 08:06:06;;;;;;;8.38;6.28;;;7.20;99.90;;;;;;5058149;28;20033;-73
2021/04/10 08:08:33;;;;;;;5.32;4.20;;;7.30;99.90;;;;;;5060652;28;20031;-73
2021/04/10 08:11:06;;;;;;;9.93;5.10;;;7.40;99.90;;;;;;5040347;28;20021;-73
2021/04/10 08:13:33;;;;;;;5.15;4.10;;;7.50;99.90;;;;;;5038106;28;20029;-74
2021/04/10 08:16:19;;;;;;;6.35;4.47;;;7.60;99.90;;;;;;5050223;28;20071;-73
2021/04/10 08:18:46;;;;;;;7.10;3.78;;;7.70;99.90;;;;;;5056985;28;20024;-73
2021/04/10 08:21:13;;;;;;;7.15;4.03;;;7.90;99.90;;;;;;5040616;28;20029;-73
2021/04/10 08:23:39;;;;;;;6.97;4.85;;;8.00;99.90;;;;;;5062968;28;20083;-74
2021/04/10 08:26:05;;;;;;;7.70;3.97;;;8.20;99.90;;;;;;5070977;28;20041;-73
2021/04/10 08:28:31;;;;;;;4.22;3.40;;;8.40;99.90;;;;;;5064233;28;20112;-74
2021/04/10 08:30:58;;;;;;;6.97;4.43;;;8.60;99.90;;;;;;5061644;28;20024;-72
2021/04/10 08:33:28;;;;;;;6.68;4.25;;;8.90;99.90;;;;;;5061522;28;20387;-73
2021/04/10 08:35:58;;;;;;;11.57;4.32;;;9.10;99.90;;;;;;5058826;28;20060;-73
2021/04/10 08:38:29;;;;;;;6.20;3.42;;;9.20;99.90;;;;;;5061845;28;20028;-73
2021/04/10 08:40:58;;;;;;;6.22;3.72;;;9.40;99.90;;;;;;5060821;28;20498;-73
2021/04/10 08:43:27;;;;;;;6.55;3.72;;;9.50;99.90;;;;;;5064304;28;20475;-73
2021/04/10 08:45:54;;;;;;;3.55;3.17;;;9.60;99.90;;;;;;5051139;28;20089;-73
2021/04/10 08:48:21;;;;;;;8.63;3.47;;;9.70;99.90;;;;;;5054428;28;20037;-74
2021/04/10 08:50:51;;;;;;;4.82;3.28;;;9.80;99.90;;;;;;5053250;28;20028;-73
2021/04/10 08:53:26;;;;;;;4.15;3.17;;;9.90;99.90;;;;;;5052321;28;20025;-72
2021/04/10 08:55:54;;;;;;;6.55;3.55;;;10.10;99.90;;;;;;5056211;28;20036;-72
2021/04/10 08:58:31;;;;;;;4.45;3.10;;;10.20;99.90;;;;;;5053168;28;20036;-72
2021/04/10 09:01:04;;;;;;;6.28;3.78;;;10.30;99.90;;;;;;5050427;28;20029;-72
2021/04/10 09:03:45;;;;;;;7.22;3.15;;;10.40;99.90;;;;;;5057833;28;20025;-72
2021/04/10 09:06:12;;;;;;;5.13;3.08;;;10.50;99.90;;;;;;5051589;28;20368;-72
2021/04/10 09:08:38;;;;;;;5.47;3.15;;;10.70;99.90;;;;;;5055059;28;20021;-73
2021/04/10 09:11:05;;;;;;;4.32;3.25;;;10.80;99.90;;;;;;5051065;28;20056;-73
2021/04/10 09:13:37;;;;;;;5.43;2.90;;;11.00;99.90;;;;;;5053792;28;20029;-72
2021/04/10 09:16:23;;;;;;;4.68;3.03;;;11.10;99.90;;;;;;5050097;28;20650;-72
2021/04/10 09:18:59;;;;;;;3.92;2.80;;;11.20;99.90;;;;;;5051677;28;20124;-72
2021/04/10 09:21:55;;;;;;;5.63;2.78;;;11.30;99.90;;;;;;5056512;28;20021;-72
2021/04/10 09:24:40;;;;;;;3.97;2.60;;;11.50;99.90;;;;;;5056491;28;20487;-72
2021/04/10 09:27:05;;;;;;;5.97;2.95;;;11.60;99.90;;;;;;5060580;28;20037;-73
2021/04/10 09:29:37;;;;;;;3.83;2.50;;;11.60;99.90;;;;;;5055215;28;20055;-72
2021/04/10 09:32:03;;;;;;;4.78;2.47;;;11.70;99.90;;;;;;5050914;28;20531;-72
2021/04/10 09:34:51;;;;;;;3.15;2.63;;;11.60;99.90;;;;;;5058499;28;20029;-72
2021/04/10 09:37:20;;;;;;;2.97;2.15;;;11.50;99.90;;;;;;5053604;28;20025;-72
2021/04/10 09:39:56;;;;;;;4.05;2.28;;;11.50;99.90;;;;;;5055877;28;20110;-72
2021/04/10 09:45:09;;;;;;;4.55;2.00;;;11.40;99.90;;;;;;5051111;28;19909;-72
2021/04/10 09:47:57;;;;;;;3.50;2.10;;;11.40;99.90;;;;;;5052525;28;20036;-72
2021/04/10 09:50:25;;;;;;;4.15;1.90;;;11.40;99.90;;;;;;5054698;28;20048;-71
2021/04/10 09:52:58;;;;;;;5.25;1.90;;;11.40;99.90;;;;;;5083406;28;20086;-72
2021/04/10 09:55:26;;;;;;;3.47;1.58;;;11.30;99.90;;;;;;5056554;28;20025;-72
2021/04/10 09:58:08;;;;;;;2.50;1.55;;;11.40;99.90;;;;;;5055941;28;20104;-72
2021/04/10 10:00:51;;;;;;;3.20;1.30;;;11.50;99.90;;;;;;5050566;28;20036;-72
2021/04/10 10:03:19;;;;;;;2.72;1.73;;;11.60;99.90;;;;;;5056735;28;20029;-72
2021/04/10 10:05:47;;;;;;;2.05;1.63;;;11.70;99.90;;;;;;5053910;28;20032;-71
2021/04/10 10:08:14;;;;;;;2.03;1.13;;;11.80;99.90;;;;;;5056080;28;20571;-71
2021/04/10 10:10:42;;;;;;;4.95;1.42;;;11.90;99.90;;;;;;5049653;28;20028;-71
2021/04/10 10:13:15;;;;;;;1.98;1.63;;;12.00;99.90;;;;;;5051738;28;20488;-73
2021/04/10 10:15:42;;;;;;;3.17;1.92;;;12.10;99.90;;;;;;5052044;28;20025;-73
2021/04/10 10:18:15;;;;;;;1.50;1.30;;;12.30;99.90;;;;;;5048360;28;20032;-71
2021/04/10 10:20:52;;;;;;;4.97;1.20;;;12.50;99.90;;;;;;5032902;28;20025;-71
2021/04/10 10:23:18;;;;;;;6.50;1.30;;;12.50;99.90;;;;;;5050541;28;20077;-71
2021/04/10 10:25:44;;;;;;;2.10;1.25;;;12.50;99.90;;;;;;5058066;28;20021;-71
2021/04/10 10:28:14;;;;;;;3.10;1.20;;;12.50;99.90;;;;;;5046006;28;20868;-71
2021/04/10 10:30:41;;;;;;;2.17;1.33;;;12.60;99.90;;;;;;5047857;28;20032;-71
2021/04/10 10:33:07;;;;;;;1.75;1.30;;;12.50;99.90;;;;;;5053578;28;20032;-71
2021/04/10 10:35:34;;;;;;;1.90;1.48;;;12.50;99.90;;;;;;5055155;28;20044;-71
2021/04/10 10:38:07;;;;;;;3.33;1.27;;;12.40;99.90;;;;;;5052926;28;20379;-71
2021/04/10 10:40:34;;;;;;;2.72;1.30;;;12.40;99.90;;;;;;5048062;28;20099;-71
2021/04/10 10:43:09;;;;;;;2.75;1.38;;;12.30;99.90;;;;;;5055287;28;20035;-71
2021/04/10 10:45:49;;;;;;;4.18;1.40;;;12.30;99.90;;;;;;5054508;28;20097;-72
2021/04/10 10:48:28;;;;;;;5.35;1.88;;;12.30;99.90;;;;;;5050935;28;20561;-72
2021/04/10 10:51:00;;;;;;;4.32;1.60;;;12.40;99.90;;;;;;5052668;28;20491;-71
2021/04/10 10:53:50;;;;;;;4.43;2.08;;;12.50;99.90;;;;;;5051830;28;20515;-72
2021/04/10 10:56:19;;;;;;;2.97;1.55;;;12.50;99.90;;;;;;5051214;28;20368;-72
2021/04/10 10:59:05;;;;;;;3.53;1.60;;;12.50;99.90;;;;;;5052233;28;20105;-72
2021/04/10 11:01:40;;;;;;;4.78;1.80;;;12.60;99.90;;;;;;5049456;28;20029;-72
2021/04/10 11:04:21;;;;;;;4.60;1.63;;;12.40;99.90;;;;;;5085253;28;20048;-72
2021/04/10 11:06:49;;;;;;;3.63;1.80;;;12.20;99.90;;;;;;5051604;28;20029;-72
2021/04/10 11:09:20;;;;;;;4.28;1.70;;;12.20;99.90;;;;;;5081495;28;20125;-72
2021/04/10 11:11:48;;;;;;;1.73;1.63;;;12.20;99.90;;;;;;5047443;28;20040;-72
2021/04/10 11:14:22;;;;;;;2.10;1.60;;;12.20;99.90;;;;;;5083900;28;20491;-72
2021/04/10 11:16:50;;;;;;;2.65;1.75;;;12.20;99.90;;;;;;5053021;28;20028;-71
2021/04/10 11:19:33;;;;;;;2.47;1.40;;;12.30;99.90;;;;;;5056782;28;20441;-70
2021/04/10 11:22:04;;;;;;;2.28;1.60;;;12.40;99.90;;;;;;5052385;28;20036;-71
2021/04/10 11:24:37;;;;;;;2.53;1.60;;;12.50;99.90;;;;;;5062094;28;20028;-71
2021/04/10 11:27:18;;;;;;;5.38;1.45;;;12.50;99.90;;;;;;5058405;28;20899;-71
2021/04/10 11:29:51;;;;;;;3.30;1.55;;;12.40;99.90;;;;;;5047494;28;20071;-71
2021/04/10 11:32:24;;;;;;;3.03;1.55;;;12.40;99.90;;;;;;5049109;28;20029;-72
2021/04/10 11:34:52;;;;;;;3.40;1.60;;;12.30;99.90;;;;;;5049933;28;20472;-71
2021/04/10 11:37:36;;;;;;;1.80;1.27;;;12.30;99.90;;;;;;5048684;28;20021;-72
2021/04/10 11:40:24;;;;;;;3.42;1.58;;;12.20;99.90;;;;;;5051309;28;20021;-71
2021/04/10 11:42:56;;;;;;;1.83;1.35;;;12.20;99.90;;;;;;5052022;28;20539;-71
2021/04/10 11:45:39;;;;;;;1.38;1.27;;;12.20;99.90;;;;;;5051248;28;20029;-71
2021/04/10 11:48:18;;;;;;;1.52;1.30;;;12.20;99.90;;;;;;5049074;28;20024;-73
2021/04/10 11:51:03;;;;;;;2.38;1.60;;;12.20;99.90;;;;;;5049424;28;20037;-74
2021/04/10 11:53:39;;;;;;;3.08;1.80;;;12.30;99.90;;;;;;5056884;28;20025;-73
2021/04/10 11:56:25;;;;;;;1.77;1.45;;;12.30;99.90;;;;;;5056821;28;20036;-74
2021/04/10 11:59:04;;;;;;;4.78;2.10;;;12.50;99.90;;;;;;5052563;28;20740;-73
2021/04/10 12:01:30;;;;;;;1.70;1.60;;;12.70;99.90;;;;;;5055394;28;20421;-73
2021/04/10 12:04:02;;;;;;;1.70;1.60;;;12.60;99.90;;;;;;5055910;28;20047;-73
2021/04/10 12:06:40;;;;;;;2.70;1.77;;;12.60;99.90;;;;;;5057306;28;20109;-74
2021/04/10 12:09:10;;;;;;;2.58;1.70;;;12.50;99.90;;;;;;5052077;28;20035;-74
2021/04/10 12:11:38;;;;;;;3.72;1.60;;;12.40;99.90;;;;;;5054218;28;20082;-72
2021/04/10 12:14:05;;;;;;;3.53;1.55;;;12.40;99.90;;;;;;5056545;28;20025;-72
2021/04/10 12:16:31;;;;;;;2.22;1.58;;;12.40;99.90;;;;;;5052048;28;20099;-72
2021/04/10 12:18:57;;;;;;;2.33;1.33;;;12.30;99.90;;;;;;5053454;28;20104;-71
2021/04/10 12:21:23;;;;;;;2.58;1.60;;;12.30;99.90;;;;;;5049066;28;20803;-71
2021/04/10 12:23:48;;;;;;;4.10;1.48;;;12.40;99.90;;;;;;5050956;28;20025;-71
2021/04/10 12:32:07;;;;;;;;;;;12.40;99.90;;;;;;5110205;27;20314;-71
2021/04/10 12:34:33;;;;;;;2.45;1.55;;;12.40;99.90;;;;;;5099267;28;19912;-71
2021/04/10 12:36:58;;;;;;;3.20;1.58;;;12.50;99.90;;;;;;5095387;28;20031;-71
2021/04/10 12:39:24;;;;;;;2.25;1.50;;;12.60;99.90;;;;;;5092512;28;20031;-72
2021/04/10 12:41:50;;;;;;;2.67;1.75;;;12.70;99.90;;;;;;5095317;28;20051;-72
2021/04/10 12:44:15;;;;;;;1.73;1.23;;;12.80;99.90;;;;;;5095192;28;20702;-72
2021/04/10 12:46:41;;;;;;;1.95;1.40;;;12.90;99.90;;;;;;5096212;28;20047;-72
2021/04/10 12:49:07;;;;;;;1.55;1.13;;;13.00;99.90;;;;;;5094988;28;20833;-72
2021/04/10 12:51:33;;;;;;;2.55;1.25;;;13.00;99.90;;;;;;5094412;28;20019;-72
2021/04/10 12:53:59;;;;;;;1.70;1.02;;;13.20;99.90;;;;;;5082646;28;20102;-71
2021/04/10 12:56:25;;;;;;;1.15;1.02;;;13.30;99.90;;;;;;5090652;28;20033;-72
2021/04/10 12:58:51;;;;;;;2.50;1.30;;;13.60;99.90;;;;;;5088077;28;20047;-72
2021/04/10 13:01:16;;;;;;;2.00;1.08;;;14.00;99.90;;;;;;5089842;28;20024;-72
2021/04/10 13:03:42;;;;;;;2.42;1.27;;;14.20;99.90;;;;;;5093672;28;20529;-71
2021/04/10 13:06:08;;;;;;;1.63;1.08;;;14.40;99.90;;;;;;5095918;28;20032;-71
2021/04/10 13:08:33;;;;;;;1.27;0.98;;;14.60;99.90;;;;;;5093874;28;20106;-71
2021/04/10 13:10:59;;;;;;;2.53;1.45;;;14.60;99.90;;;;;;5090393;28;20047;-72
2021/04/10 13:13:25;;;;;;;1.38;1.20;;;14.70;99.90;;;;;;5093968;28;20036;-72
2021/04/10 13:15:50;;;;;;;1.40;1.05;;;14.80;99.90;;;;;;5089159;28;20154;-72